Time;durP1;ratioP1;P1;durP2;ratioP2;P2;SDS_P1;SDS_P2;PMS_P1;PMS_P2;Temp;Humidity;BMP_temperature;BMP_pressure;BME280_temperature;BME280_humidity;BME280_pressure;Samples;Min_cycle;Max_cycle;Signal;HPM_P1;HPM_P2
2023/10/20 00:00:09;;;;;;;61.67;33.38;;;;;;;10.58;100.00;96108.25;3147229;23;20403;-92
2023/10/20 00:01:33;;;;;;;62.08;31.80;;;;;;;10.60;100.00;96106.38;3158110;23;20037;-91
2023/10/20 00:02:49;;;;;;;62.95;33.00;;;;;;;10.69;100.00;96110.16;3163390;23;20110;-90
2023/10/20 00:04:04;;;;;;;59.30;31.85;;;;;;;10.52;100.00;96108.66;3163777;23;20022;-92
2023/10/20 00:05:20;;;;;;;64.05;33.28;;;;;;;10.38;100.00;96106.91;3147833;23;20033;-92
2023/10/20 00:06:38;;;;;;;61.10;32.20;;;;;;;10.46;100.00;96115.13;3153884;23;20374;-92
2023/10/20 00:07:54;;;;;;;61.00;32.25;;;;;;;10.50;100.00;96108.75;3147344;23;20061;-92
2023/10/20 00:09:14;;;;;;;61.70;31.65;;;;;;;10.65;100.00;96109.53;3139058;23;20379;-90
2023/10/20 00:10:35;;;;;;;56.28;30.17;;;;;;;10.72;100.00;96104.72;3155467;23;20022;-92
2023/10/20 00:11:51;;;;;;;60.67;32.10;;;;;;;10.75;100.00;96101.88;3147869;23;20086;-92
2023/10/20 00:13:07;;;;;;;55.75;30.35;;;;;;;10.74;100.00;96102.84;3154813;23;20088;-91
2023/10/20 00:14:22;;;;;;;56.70;30.35;;;;;;;10.70;100.00;96103.97;3148633;23;20388;-92
2023/10/20 00:15:38;;;;;;;54.72;30.60;;;;;;;10.70;100.00;96104.84;3139837;23;20062;-91
2023/10/20 00:16:53;;;;;;;54.67;29.70;;;;;;;10.66;100.00;96110.38;3153450;23;20378;-92
2023/10/20 00:18:09;;;;;;;53.72;30.08;;;;;;;10.47;100.00;96108.94;3147462;23;20518;-92
2023/10/20 00:19:24;;;;;;;57.28;30.10;;;;;;;10.58;100.00;96103.84;3147518;23;21026;-91
2023/10/20 00:20:40;;;;;;;56.20;30.65;;;;;;;10.52;100.00;96111.25;3138764;23;20030;-91
2023/10/20 00:21:55;;;;;;;57.15;30.15;;;;;;;10.55;100.00;96116.31;3154538;23;20029;-93
2023/10/20 00:23:14;;;;;;;55.17;30.25;;;;;;;10.49;100.00;96120.16;3148144;23;20022;-91
2023/10/20 00:24:29;;;;;;;56.60;30.48;;;;;;;10.43;100.00;96121.41;3155230;23;20021;-91
2023/10/20 00:25:45;;;;;;;57.67;31.80;;;;;;;10.45;100.00;96116.06;3164247;23;20022;-91
2023/10/20 00:27:00;;;;;;;59.97;31.83;;;;;;;10.49;100.00;96120.16;3164884;23;20030;-92
2023/10/20 00:28:16;;;;;;;57.63;31.42;;;;;;;10.54;100.00;96118.09;3165216;23;20449;-91
2023/10/20 00:29:31;;;;;;;64.78;30.15;;;;;;;10.56;100.00;96118.00;3147388;23;20074;-91
2023/10/20 00:30:47;;;;;;;54.95;30.25;;;;;;;10.50;100.00;96115.75;3153731;23;20826;-92
2023/10/20 00:32:04;;;;;;;55.70;30.27;;;;;;;10.40;100.00;96113.69;3147773;23;20018;-91
2023/10/20 00:33:20;;;;;;;59.85;31.08;;;;;;;10.18;100.00;96111.63;3138558;23;20037;-92
2023/10/20 00:34:36;;;;;;;58.15;30.42;;;;;;;10.32;100.00;96101.13;3154723;23;20013;-92
2023/10/20 00:35:51;;;;;;;61.25;31.40;;;;;;;10.31;100.00;96109.91;3164408;23;20021;-92
2023/10/20 00:37:07;;;;;;;59.30;31.13;;;;;;;10.34;100.00;96115.88;3164662;23;20026;-92
2023/10/20 00:38:23;;;;;;;62.65;32.13;;;;;;;10.28;100.00;96107.50;3164828;23;20026;-91
2023/10/20 00:39:39;;;;;;;59.78;31.80;;;;;;;10.35;100.00;96112.34;3147764;23;20030;-91
2023/10/20 00:40:54;;;;;;;59.13;31.42;;;;;;;10.39;100.00;96098.94;3147520;23;20037;-92
2023/10/20 00:42:10;;;;;;;52.22;29.00;;;;;;;10.42;100.00;96096.19;3154043;23;20033;-92
2023/10/20 00:43:37;;;;;;;53.97;29.90;;;;;;;10.43;100.00;96094.41;3147524;23;20018;-91
2023/10/20 00:44:53;;;;;;;57.38;30.25;;;;;;;10.15;100.00;96088.31;3142724;23;20034;-91
2023/10/20 00:46:10;;;;;;;62.58;32.10;;;;;;;9.86;100.00;96085.78;3153971;23;20056;-91
2023/10/20 00:47:27;;;;;;;69.35;34.22;;;;;;;10.17;100.00;96078.59;3147716;23;20038;-90
2023/10/20 00:48:42;;;;;;;66.03;34.10;;;;;;;10.35;100.00;96073.13;3154321;23;20026;-92
2023/10/20 00:49:58;;;;;;;66.70;33.08;;;;;;;10.43;100.00;96076.09;3147633;23;20022;-91
2023/10/20 00:51:15;;;;;;;67.25;34.70;;;;;;;10.26;100.00;96072.75;3154623;23;20018;-91
2023/10/20 00:52:32;;;;;;;65.28;32.63;;;;;;;10.35;100.00;96079.16;3148279;23;20114;-91
2023/10/20 00:53:47;;;;;;;62.22;33.20;;;;;;;10.48;100.00;96075.78;3138680;23;20490;-91
2023/10/20 00:55:07;;;;;;;61.47;31.95;;;;;;;10.52;100.00;96067.63;3138382;23;20018;-91
2023/10/20 00:56:22;;;;;;;62.10;32.88;;;;;;;10.53;100.00;96063.22;3155768;23;20029;-91
2023/10/20 00:57:40;;;;;;;64.40;32.83;;;;;;;10.58;100.00;96074.25;3164876;23;20744;-93
2023/10/20 00:58:56;;;;;;;64.00;33.10;;;;;;;10.64;100.00;96071.22;3163470;23;20022;-92
2023/10/20 01:00:12;;;;;;;56.67;32.67;;;;;;;10.51;100.00;96065.97;3149151;23;20093;-91
2023/10/20 01:01:28;;;;;;;59.85;31.35;;;;;;;10.38;100.00;96062.44;3153780;23;20022;-91
2023/10/20 01:02:44;;;;;;;55.15;30.70;;;;;;;10.41;100.00;96059.66;3147646;23;20531;-92
2023/10/20 01:04:00;;;;;;;65.13;33.78;;;;;;;10.49;100.00;96056.53;3154093;23;20026;-91
2023/10/20 01:05:22;;;;;;;61.13;32.63;;;;;;;10.53;100.00;96058.00;3164948;23;20033;-92
2023/10/20 01:06:37;;;;;;;63.30;32.42;;;;;;;10.44;100.00;96049.84;3148772;23;20066;-91
2023/10/20 01:07:53;;;;;;;59.95;32.38;;;;;;;10.46;100.00;96047.09;3140137;23;20026;-91
2023/10/20 01:09:10;;;;;;;60.03;33.35;;;;;;;10.51;100.00;96037.19;3140085;23;20034;-92
2023/10/20 01:10:25;;;;;;;57.72;30.90;;;;;;;10.57;100.00;96036.75;3140924;23;20018;-92
2023/10/20 01:11:41;;;;;;;58.28;32.08;;;;;;;10.49;100.00;96025.13;3156229;23;20084;-95
2023/10/20 01:12:56;;;;;;;57.53;31.95;;;;;;;10.49;100.00;96015.53;3165956;23;20044;-91
2023/10/20 01:14:12;;;;;;;62.40;32.38;;;;;;;10.50;100.00;96011.97;3164812;23;20018;-91
2023/10/20 01:15:27;;;;;;;57.67;32.25;;;;;;;10.56;100.00;96010.72;3148711;23;20018;-91
2023/10/20 01:16:43;;;;;;;58.10;31.10;;;;;;;10.51;100.00;96008.41;3140474;23;20038;-92
2023/10/20 01:17:59;;;;;;;58.17;32.17;;;;;;;10.49;100.00;96004.22;3155560;23;20045;-92
2023/10/20 01:19:14;;;;;;;59.08;31.52;;;;;;;10.51;100.00;96008.41;3148944;23;20423;-91
2023/10/20 01:20:30;;;;;;;63.40;32.92;;;;;;;10.56;100.00;96011.53;3155295;23;20021;-92
2023/10/20 01:21:46;;;;;;;66.95;34.15;;;;;;;10.54;100.00;96008.19;3164991;23;20125;-91
2023/10/20 01:23:02;;;;;;;59.70;32.00;;;;;;;10.36;100.00;96004.19;3149439;23;20471;-92
2023/10/20 01:24:17;;;;;;;63.83;34.20;;;;;;;10.48;100.00;96013.84;3139572;23;20051;-90
2023/10/20 01:25:33;;;;;;;55.78;31.20;;;;;;;10.54;100.00;96010.81;3154207;23;20018;-91
2023/10/20 01:26:49;;;;;;;60.78;32.40;;;;;;;10.59;100.00;96005.28;3147457;23;20067;-92
2023/10/20 01:28:04;;;;;;;60.50;32.55;;;;;;;10.35;100.00;95997.28;3153967;23;20473;-90
2023/10/20 01:29:20;;;;;;;60.28;31.83;;;;;;;9.99;100.00;95987.34;3164061;23;20032;-91
2023/10/20 01:30:35;;;;;;;65.57;34.20;;;;;;;9.68;100.00;95991.94;3147947;23;20050;-90
2023/10/20 01:31:51;;;;;;;66.97;34.45;;;;;;;9.81;100.00;95991.16;3154791;23;20024;-91
2023/10/20 01:33:07;;;;;;;68.07;35.15;;;;;;;10.07;100.00;95984.22;3148387;23;20073;-91
2023/10/20 01:34:22;;;;;;;70.43;34.42;;;;;;;9.98;100.00;95980.44;3154043;23;20077;-92
2023/10/20 01:35:38;;;;;;;72.65;36.13;;;;;;;10.15;100.00;95976.72;3147004;23;20075;-91
2023/10/20 01:36:53;;;;;;;71.25;36.45;;;;;;;10.17;100.00;95974.00;3153846;23;20033;-91
2023/10/20 01:38:09;;;;;;;69.55;35.13;;;;;;;10.00;100.00;95965.50;3147234;23;20018;-89
2023/10/20 01:39:25;;;;;;;71.40;36.65;;;;;;;10.06;100.00;95966.88;3141526;23;20551;-90
2023/10/20 01:40:40;;;;;;;68.03;35.70;;;;;;;10.27;100.00;95972.44;3142314;23;20134;-91
2023/10/20 01:41:56;;;;;;;68.38;34.45;;;;;;;10.32;100.00;95969.53;3158292;23;20076;-91
2023/10/20 01:43:12;;;;;;;67.65;35.35;;;;;;;10.45;100.00;95959.09;3150708;23;20018;-91
2023/10/20 01:44:27;;;;;;;60.60;33.22;;;;;;;10.48;100.00;95955.44;3151734;23;20167;-90
2023/10/20 01:45:43;;;;;;;62.75;34.42;;;;;;;10.32;100.00;95956.47;3158880;23;20026;-90
2023/10/20 01:46:59;;;;;;;69.03;35.83;;;;;;;10.48;100.00;95951.06;3166745;23;20026;-90
2023/10/20 01:48:14;;;;;;;72.85;34.90;;;;;;;10.51;100.00;95956.09;3167062;23;20022;-91
2023/10/20 01:49:30;;;;;;;63.45;34.08;;;;;;;10.47;100.00;95954.59;3167232;23;20026;-91
2023/10/20 01:50:46;;;;;;;61.17;33.70;;;;;;;10.28;100.00;95955.00;3151615;23;20018;-92
2023/10/20 01:52:02;;;;;;;61.65;32.83;;;;;;;10.38;100.00;95949.97;3158301;23;20026;-92
2023/10/20 01:53:17;;;;;;;64.07;33.83;;;;;;;10.40;100.00;95945.47;3167980;23;20025;-91
2023/10/20 01:54:33;;;;;;;66.28;33.78;;;;;;;10.40;100.00;95950.72;3152665;23;20022;-92
2023/10/20 01:55:52;;;;;;;62.65;33.17;;;;;;;10.36;100.00;95949.25;3157774;23;20054;-91
2023/10/20 01:57:08;;;;;;;62.05;33.65;;;;;;;10.19;100.00;95953.81;3168576;23;20042;-92
2023/10/20 01:58:24;;;;;;;60.85;32.05;;;;;;;10.29;100.00;95947.03;3150677;23;20037;-91
2023/10/20 01:59:40;;;;;;;60.15;31.95;;;;;;;10.30;100.00;95948.69;3157499;23;20044;-91
2023/10/20 02:00:55;;;;;;;60.60;32.03;;;;;;;10.45;100.00;95956.47;3150473;23;20065;-92
2023/10/20 02:02:11;;;;;;;59.40;33.15;;;;;;;10.50;100.00;95949.19;3155604;23;20033;-91
2023/10/20 02:03:27;;;;;;;63.17;33.35;;;;;;;10.57;100.00;95947.81;3163630;23;20053;-92
2023/10/20 02:04:51;;;;;;;65.03;33.67;;;;;;;10.55;100.00;95952.31;3164495;23;20026;-92
2023/10/20 02:06:10;;;;;;;63.40;33.22;;;;;;;10.55;100.00;95946.25;3132438;23;20022;-92
2023/10/20 02:07:25;;;;;;;61.63;32.85;;;;;;;10.58;100.00;95946.03;3138918;23;20664;-92
2023/10/20 02:08:41;;;;;;;59.28;30.92;;;;;;;10.44;100.00;95944.34;3139295;23;20018;-93
2023/10/20 02:09:56;;;;;;;57.60;30.38;;;;;;;10.44;100.00;95946.97;3154799;23;20470;-93
2023/10/20 02:11:12;;;;;;;59.38;31.50;;;;;;;10.55;100.00;95947.06;3164700;23;20022;-92
2023/10/20 02:12:28;;;;;;;62.95;33.35;;;;;;;10.59;100.00;95951.16;3149494;23;20018;-89
2023/10/20 02:13:43;;;;;;;57.78;32.33;;;;;;;10.63;100.00;95949.16;3138839;23;20023;-89
2023/10/20 02:14:59;;;;;;;55.47;32.08;;;;;;;10.64;100.00;95948.22;3154123;23;20069;-92
2023/10/20 02:16:15;;;;;;;55.28;31.25;;;;;;;10.66;100.00;95935.88;3163538;23;20022;-92
2023/10/20 02:17:31;;;;;;;54.88;30.60;;;;;;;10.60;100.00;95933.69;3164165;23;20026;-89
2023/10/20 02:18:46;;;;;;;53.75;31.13;;;;;;;10.64;100.00;95927.28;3148516;23;20650;-90
2023/10/20 02:20:03;;;;;;;56.88;31.92;;;;;;;10.60;100.00;95918.81;3154335;23;20022;-91
2023/10/20 02:21:20;;;;;;;55.35;30.33;;;;;;;10.66;100.00;95916.72;3163358;23;20064;-90
2023/10/20 02:22:35;;;;;;;56.45;31.15;;;;;;;10.61;100.00;95922.28;3148558;23;20023;-90
2023/10/20 02:23:51;;;;;;;55.80;31.08;;;;;;;10.57;100.00;95918.22;3139933;23;20038;-90
2023/10/20 02:25:08;;;;;;;60.80;32.80;;;;;;;10.69;100.00;95916.50;3140125;23;20053;-91
2023/10/20 02:26:24;;;;;;;61.95;32.28;;;;;;;10.71;100.00;95920.72;3139084;23;20049;-90
2023/10/20 02:27:42;;;;;;;59.65;32.25;;;;;;;10.74;100.00;95925.72;3153398;23;20490;-90
2023/10/20 02:28:57;;;;;;;56.53;31.30;;;;;;;10.74;100.00;95924.88;3132200;23;20110;-90
2023/10/20 02:30:15;;;;;;;56.75;31.35;;;;;;;10.76;100.00;95927.41;3145134;23;20025;-91
2023/10/20 02:31:30;;;;;;;56.83;31.75;;;;;;;10.58;100.00;95920.69;3147207;23;20021;-91
2023/10/20 02:32:46;;;;;;;59.97;31.98;;;;;;;10.52;100.00;95922.91;3153750;23;20033;-90
2023/10/20 02:34:01;;;;;;;59.67;32.72;;;;;;;10.63;100.00;95917.78;3164244;23;20018;-91
2023/10/20 02:35:17;;;;;;;57.65;32.35;;;;;;;10.64;100.00;95913.38;3148295;23;20033;-91
2023/10/20 02:36:34;;;;;;;56.03;31.30;;;;;;;10.62;100.00;95910.03;3155142;23;20022;-91
2023/10/20 02:37:49;;;;;;;61.35;32.83;;;;;;;10.56;100.00;95916.53;3147666;23;20029;-90
2023/10/20 02:39:05;;;;;;;57.83;31.92;;;;;;;10.21;100.00;95906.66;3138307;23;20586;-91
2023/10/20 02:40:21;;;;;;;55.50;31.02;;;;;;;10.15;100.00;95903.53;3153454;23;20129;-90
2023/10/20 02:41:36;;;;;;;59.70;33.00;;;;;;;10.21;100.00;95907.50;3147639;23;20105;-90
2023/10/20 02:42:52;;;;;;;61.20;33.08;;;;;;;9.96;100.00;95916.97;3138280;23;20089;-91
2023/10/20 02:44:08;;;;;;;63.78;34.13;;;;;;;10.09;100.00;95913.56;3139077;23;20029;-91
2023/10/20 02:45:23;;;;;;;68.40;34.25;;;;;;;10.29;100.00;95920.88;3137906;23;20209;-93
2023/10/20 02:46:39;;;;;;;65.43;34.60;;;;;;;10.34;100.00;95925.81;3138256;23;20027;-90
2023/10/20 02:47:55;;;;;;;63.13;33.05;;;;;;;10.01;100.00;95924.53;3138195;23;20026;-90
2023/10/20 02:49:10;;;;;;;67.10;35.65;;;;;;;9.80;100.00;95932.81;3153795;23;20073;-91
2023/10/20 02:50:27;;;;;;;68.05;35.50;;;;;;;10.18;100.00;95921.59;3163292;23;20032;-89
2023/10/20 02:51:42;;;;;;;69.43;35.45;;;;;;;10.33;100.00;95921.50;3162959;23;20045;-92
2023/10/20 02:52:58;;;;;;;63.65;33.17;;;;;;;10.39;100.00;95920.25;3147534;23;20029;-91
2023/10/20 02:54:13;;;;;;;62.83;35.05;;;;;;;10.41;100.00;95915.78;3154008;23;20041;-93
2023/10/20 02:55:29;;;;;;;65.18;35.15;;;;;;;10.15;100.00;95918.34;3164084;23;20395;-91
2023/10/20 02:56:45;;;;;;;69.20;34.38;;;;;;;9.96;100.00;95914.38;3164101;23;20022;-90
2023/10/20 02:58:00;;;;;;;70.63;35.63;;;;;;;10.10;100.00;95913.44;3146942;23;20030;-90
2023/10/20 02:59:16;;;;;;;73.38;35.17;;;;;;;10.12;100.00;95919.38;3139739;23;20029;-90
2023/10/20 03:00:33;;;;;;;68.30;35.30;;;;;;;10.13;100.00;95915.88;3153359;23;20025;-90
2023/10/20 03:01:48;;;;;;;75.50;36.05;;;;;;;10.09;100.00;95910.94;3147200;23;20038;-90
2023/10/20 03:03:04;;;;;;;70.78;35.22;;;;;;;10.16;100.00;95907.81;3153646;23;20077;-91
2023/10/20 03:04:20;;;;;;;63.50;34.05;;;;;;;10.17;100.00;95909.47;3147097;23;20026;-91
2023/10/20 03:05:36;;;;;;;67.95;36.00;;;;;;;10.26;100.00;95915.88;3153833;23;20022;-91
2023/10/20 03:06:52;;;;;;;70.43;36.47;;;;;;;10.40;100.00;95916.69;3147777;23;20729;-90
2023/10/20 03:08:08;;;;;;;65.70;34.03;;;;;;;10.42;100.00;95914.84;3139355;23;20029;-90
2023/10/20 03:09:24;;;;;;;65.20;33.42;;;;;;;10.45;100.00;95912.00;3139463;23;20255;-90
2023/10/20 03:10:40;;;;;;;62.45;33.53;;;;;;;10.50;100.00;95917.78;3154899;23;20022;-90
2023/10/20 03:11:55;;;;;;;65.63;34.00;;;;;;;10.63;100.00;95923.00;3147070;23;20026;-90
2023/10/20 03:13:11;;;;;;;69.63;34.78;;;;;;;10.59;100.00;95914.53;3147371;23;20033;-90
2023/10/20 03:14:26;;;;;;;65.95;34.60;;;;;;;10.68;100.00;95915.66;3153804;23;20085;-90
2023/10/20 03:15:42;;;;;;;67.95;34.10;;;;;;;10.75;100.00;95910.84;3163659;23;20025;-90
2023/10/20 03:16:57;;;;;;;61.38;32.90;;;;;;;10.72;100.00;95918.91;3163554;23;20096;-91
2023/10/20 03:18:14;;;;;;;62.85;33.58;;;;;;;10.72;100.00;95917.16;3164013;23;20081;-90
2023/10/20 03:19:30;;;;;;;60.67;32.72;;;;;;;10.72;100.00;95911.91;3147291;23;20037;-91
2023/10/20 03:20:47;;;;;;;62.20;32.70;;;;;;;10.71;100.00;95919.84;3154783;23;20018;-90
2023/10/20 03:22:03;;;;;;;64.28;33.00;;;;;;;10.66;100.00;95907.09;3163092;23;20394;-90
2023/10/20 03:23:20;;;;;;;63.25;32.50;;;;;;;10.61;100.00;95906.59;3163229;23;20025;-90
2023/10/20 03:24:36;;;;;;;62.42;34.03;;;;;;;10.52;100.00;95904.59;3163246;23;20034;-90
2023/10/20 03:25:51;;;;;;;63.30;33.28;;;;;;;10.52;100.00;95900.22;3147013;23;20073;-91
2023/10/20 03:27:07;;;;;;;65.65;33.17;;;;;;;10.44;100.00;95892.03;3138146;23;20030;-90
2023/10/20 03:28:23;;;;;;;69.97;33.47;;;;;;;10.39;100.00;95889.69;3140249;23;20061;-90
2023/10/20 03:29:38;;;;;;;63.80;34.15;;;;;;;10.17;100.00;95879.88;3138732;23;20474;-90
2023/10/20 03:30:54;;;;;;;65.75;34.53;;;;;;;9.97;100.00;95882.06;3138692;23;20030;-91
2023/10/20 03:32:10;;;;;;;72.45;34.90;;;;;;;9.82;100.00;95880.47;3138902;23;20022;-90
2023/10/20 03:33:26;;;;;;;71.97;35.70;;;;;;;9.66;100.00;95876.25;3156134;23;20014;-90
2023/10/20 03:34:41;;;;;;;76.53;37.63;;;;;;;9.98;100.00;95869.81;3147947;23;20028;-90
2023/10/20 03:36:03;;;;;;;81.38;38.38;;;;;;;9.91;100.00;95872.00;3148260;23;20022;-90
2023/10/20 03:37:19;;;;;;;77.35;36.75;;;;;;;9.88;100.00;95867.84;3148827;23;20525;-89
2023/10/20 03:38:35;;;;;;;83.38;38.92;;;;;;;9.80;100.00;95866.66;3133087;23;20105;-89
2023/10/20 03:39:51;;;;;;;81.97;39.50;;;;;;;9.87;100.00;95863.53;3124382;23;20026;-90
2023/10/20 03:41:07;;;;;;;79.25;39.05;;;;;;;9.95;100.00;95862.19;3139377;23;20082;-90
2023/10/20 03:42:23;;;;;;;79.88;39.03;;;;;;;9.96;100.00;95849.03;3133849;23;20046;-93
2023/10/20 03:43:38;;;;;;;78.60;37.88;;;;;;;10.11;100.00;95844.50;3109444;23;20384;-92
2023/10/20 03:44:54;;;;;;;80.35;39.22;;;;;;;10.16;100.00;95846.81;3132447;23;20451;-92
2023/10/20 03:46:13;;;;;;;75.25;37.30;;;;;;;10.22;100.00;95840.34;3149994;23;20050;-91
2023/10/20 03:47:34;;;;;;;80.07;37.92;;;;;;;10.19;100.00;95841.38;3135044;23;20110;-93
2023/10/20 03:48:49;;;;;;;73.50;37.08;;;;;;;10.29;100.00;95846.84;3127094;23;20101;-91
2023/10/20 03:50:16;;;;;;;79.07;36.78;;;;;;;10.31;100.00;95835.31;3110179;23;20079;-93
2023/10/20 03:51:35;;;;;;;73.10;37.05;;;;;;;10.34;100.00;95833.41;3135270;23;20085;-92
2023/10/20 03:52:50;;;;;;;73.82;36.45;;;;;;;10.44;100.00;95835.34;3134709;23;20023;-92
2023/10/20 03:54:06;;;;;;;71.97;35.65;;;;;;;10.48;100.00;95838.59;3141035;23;20021;-92
2023/10/20 03:55:21;;;;;;;69.75;35.83;;;;;;;10.42;100.00;95839.00;3135201;23;20027;-92
2023/10/20 03:56:37;;;;;;;67.75;34.35;;;;;;;10.50;100.00;95831.47;3141828;23;20029;-92
2023/10/20 03:57:53;;;;;;;63.80;33.33;;;;;;;10.50;100.00;95828.84;3150198;23;20575;-92
2023/10/20 03:59:13;;;;;;;61.67;33.42;;;;;;;10.48;100.00;95824.66;3133782;23;20029;-91
2023/10/20 04:00:29;;;;;;;66.90;33.80;;;;;;;10.52;100.00;95829.56;3125538;23;20078;-91
2023/10/20 04:01:44;;;;;;;59.13;32.45;;;;;;;10.38;100.00;95829.66;3124485;23;20027;-91
2023/10/20 04:03:00;;;;;;;64.45;31.75;;;;;;;10.32;100.00;95836.97;3125212;23;20363;-93
2023/10/20 04:04:17;;;;;;;63.28;31.67;;;;;;;10.48;100.00;95837.72;3125343;23;20487;-92
2023/10/20 04:05:32;;;;;;;68.93;33.47;;;;;;;10.48;100.00;95842.97;3140034;23;20018;-91
2023/10/20 04:06:49;;;;;;;64.75;33.33;;;;;;;10.41;100.00;95840.78;3133721;23;20030;-93
2023/10/20 04:08:05;;;;;;;63.90;33.67;;;;;;;10.36;100.00;95840.22;3125372;23;20029;-91
2023/10/20 04:09:22;;;;;;;61.42;31.73;;;;;;;10.25;100.00;95835.75;3140348;23;20029;-92
2023/10/20 04:10:38;;;;;;;66.40;32.85;;;;;;;10.17;100.00;95838.88;3149561;23;20018;-91
2023/10/20 04:11:53;;;;;;;69.80;32.67;;;;;;;10.21;100.00;95842.13;3149027;23;20029;-91
2023/10/20 04:13:10;;;;;;;63.35;31.63;;;;;;;10.19;100.00;95833.53;3133218;23;20026;-91
2023/10/20 04:14:25;;;;;;;65.72;33.20;;;;;;;10.10;100.00;95842.84;3124311;23;20061;-91
2023/10/20 04:15:42;;;;;;;65.90;33.78;;;;;;;10.27;100.00;95844.31;3139673;23;20030;-91
2023/10/20 04:16:58;;;;;;;61.30;30.65;;;;;;;10.20;100.00;95839.59;3133301;23;20419;-91
2023/10/20 04:18:13;;;;;;;67.90;33.38;;;;;;;10.25;100.00;95845.34;3124600;23;20034;-91
2023/10/20 04:19:29;;;;;;;66.10;31.17;;;;;;;10.33;100.00;95829.97;3125211;23;20023;-92
2023/10/20 04:20:48;;;;;;;61.85;33.03;;;;;;;10.42;100.00;95833.75;3124115;23;20329;-91
2023/10/20 04:22:12;;;;;;;59.67;33.25;;;;;;;10.56;100.00;95827.59;3126021;23;20030;-92
2023/10/20 04:23:27;;;;;;;62.55;32.97;;;;;;;10.68;100.00;95818.03;3140530;23;20318;-93
2023/10/20 04:24:44;;;;;;;62.42;32.35;;;;;;;10.68;100.00;95818.03;3148980;23;20033;-91
2023/10/20 04:26:00;;;;;;;65.80;32.88;;;;;;;10.68;100.00;95807.56;3149162;23;20058;-93
2023/10/20 04:27:23;;;;;;;64.20;34.28;;;;;;;10.74;100.00;95804.50;3149910;23;20027;-92
2023/10/20 04:28:42;;;;;;;63.03;33.00;;;;;;;10.73;100.00;95806.28;3149088;23;20447;-92
2023/10/20 04:42:55;;;;;;;66.57;32.22;;;;;;;10.72;100.00;95781.06;3165483;23;20494;-92
2023/10/20 04:48:48;;;;;;;60.38;33.28;;;;;;;10.53;100.00;95785.91;3165161;23;20581;-93
2023/10/20 04:59:10;;;;;;;68.10;32.63;;;;;;;10.81;100.00;95765.63;3164150;23;20411;-92
2023/10/20 05:01:49;;;;;;;66.82;33.33;;;;;;;10.73;100.00;95767.03;3154500;23;20103;-93
2023/10/20 05:04:36;;;;;;;68.55;35.72;;;;;;;10.52;100.00;95753.72;3163417;23;20049;-92
2023/10/20 05:05:53;;;;;;;65.75;34.45;;;;;;;10.67;100.00;95746.53;3146956;23;20027;-91
2023/10/20 05:07:09;;;;;;;63.70;33.70;;;;;;;10.59;100.00;95739.22;3155521;23;20045;-93
2023/10/20 05:08:25;;;;;;;68.53;33.95;;;;;;;10.25;100.00;95739.00;3147356;23;20029;-91
2023/10/20 05:09:43;;;;;;;71.75;34.70;;;;;;;10.16;100.00;95735.25;3155903;23;20022;-91
2023/10/20 05:10:59;;;;;;;77.53;36.40;;;;;;;10.06;100.00;95730.75;3163832;23;20022;-91
2023/10/20 05:12:15;;;;;;;81.32;37.40;;;;;;;9.91;100.00;95725.63;3147421;23;20050;-91
2023/10/20 05:13:32;;;;;;;88.13;39.95;;;;;;;10.02;100.00;95720.50;3139162;23;20505;-91
2023/10/20 05:14:49;;;;;;;92.43;38.35;;;;;;;10.35;100.00;95714.81;3139753;23;20054;-91
2023/10/20 05:16:05;;;;;;;92.38;40.70;;;;;;;10.48;100.00;95714.78;3157417;23;20017;-90
2023/10/20 05:17:21;;;;;;;89.88;39.90;;;;;;;10.49;100.00;95712.06;3164829;23;20501;-92
2023/10/20 05:18:39;;;;;;;84.00;38.42;;;;;;;10.63;100.00;95708.44;3164347;23;20018;-91
2023/10/20 05:19:55;;;;;;;79.95;37.08;;;;;;;10.63;100.00;95702.41;3147536;23;20061;-90
2023/10/20 05:21:18;;;;;;;78.20;37.78;;;;;;;10.58;100.00;95703.53;3139410;23;20026;-90
2023/10/20 05:22:33;;;;;;;77.38;35.85;;;;;;;10.66;100.00;95710.84;3155986;23;20358;-91
2023/10/20 05:23:49;;;;;;;77.72;37.40;;;;;;;10.70;100.00;95711.47;3164079;23;20025;-91
2023/10/20 05:25:06;;;;;;;77.07;36.45;;;;;;;10.81;100.00;95708.91;3164940;23;20033;-90
2023/10/20 05:26:23;;;;;;;81.03;36.70;;;;;;;10.86;100.00;95706.78;3165939;23;20021;-90
2023/10/20 05:27:40;;;;;;;70.63;34.45;;;;;;;10.80;100.00;95709.84;3148989;23;20419;-90
2023/10/20 05:28:56;;;;;;;71.57;34.72;;;;;;;10.68;100.00;95718.59;3153834;23;20053;-90
2023/10/20 05:30:11;;;;;;;76.18;35.70;;;;;;;10.74;100.00;95711.13;3162997;23;20565;-91
2023/10/20 05:31:29;;;;;;;72.18;34.78;;;;;;;10.83;100.00;95720.09;3163238;23;20089;-92
2023/10/20 05:32:46;;;;;;;81.25;37.47;;;;;;;10.83;100.00;95717.47;3163872;23;20029;-92
2023/10/20 05:34:01;;;;;;;72.55;34.78;;;;;;;10.91;100.00;95714.28;3147708;23;20482;-92
2023/10/20 05:35:17;;;;;;;71.43;34.92;;;;;;;10.93;100.00;95716.81;3154399;23;20053;-92
2023/10/20 05:36:33;;;;;;;70.63;34.33;;;;;;;10.87;100.00;95718.91;3164273;23;20024;-92
2023/10/20 05:37:48;;;;;;;74.88;35.65;;;;;;;10.83;100.00;95714.84;3148386;23;20018;-91
2023/10/20 05:39:05;;;;;;;71.80;34.92;;;;;;;10.85;100.00;95707.72;3139556;23;20463;-92
2023/10/20 05:40:20;;;;;;;68.57;34.40;;;;;;;10.93;100.00;95703.72;3153447;23;20143;-92
2023/10/20 05:41:36;;;;;;;72.55;34.95;;;;;;;10.77;100.00;95698.75;3162630;23;20466;-92
2023/10/20 05:42:51;;;;;;;77.30;34.28;;;;;;;10.92;100.00;95696.81;3163267;23;20017;-92
2023/10/20 05:44:11;;;;;;;70.45;33.78;;;;;;;10.99;100.00;95705.88;3161997;23;20117;-91
2023/10/20 05:45:32;;;;;;;65.55;33.13;;;;;;;11.04;100.00;95711.63;3145971;23;20037;-92
2023/10/20 05:46:49;;;;;;;70.00;34.60;;;;;;;10.99;100.00;95711.09;3154587;23;20033;-92
2023/10/20 05:48:08;;;;;;;66.32;33.10;;;;;;;11.04;100.00;95703.78;3163220;23;20021;-92
2023/10/20 05:49:24;;;;;;;68.28;34.38;;;;;;;11.11;100.00;95702.34;3163514;23;20290;-92
2023/10/20 05:50:39;;;;;;;70.85;33.55;;;;;;;11.10;100.00;95699.84;3146514;23;20029;-92
2023/10/20 05:51:55;;;;;;;70.80;33.35;;;;;;;11.15;100.00;95693.31;3135680;23;20542;-92
2023/10/20 05:53:11;;;;;;;69.82;32.95;;;;;;;11.15;100.00;95693.31;3154473;23;20021;-91
2023/10/20 05:54:26;;;;;;;66.88;32.78;;;;;;;11.13;100.00;95694.38;3148213;23;20482;-92
2023/10/20 05:55:42;;;;;;;71.13;34.08;;;;;;;11.08;100.00;95696.50;3154819;23;20026;-91
2023/10/20 05:56:57;;;;;;;67.38;33.40;;;;;;;11.10;100.00;95700.69;3147334;23;20509;-91
2023/10/20 05:58:13;;;;;;;74.18;33.95;;;;;;;11.12;100.00;95695.34;3153946;23;20033;-90
2023/10/20 05:59:28;;;;;;;74.75;34.88;;;;;;;11.09;100.00;95693.78;3163737;23;20022;-91
2023/10/20 06:00:44;;;;;;;71.03;34.30;;;;;;;11.13;100.00;95700.44;3163649;23;20026;-93
2023/10/20 06:02:03;;;;;;;67.47;32.97;;;;;;;11.19;100.00;95696.53;3162904;23;20105;-93
2023/10/20 06:03:18;;;;;;;65.18;33.28;;;;;;;11.23;100.00;95694.53;3164110;23;20686;-92
2023/10/20 06:04:34;;;;;;;66.78;33.25;;;;;;;11.29;100.00;95697.53;3164341;23;20025;-94
2023/10/20 06:05:50;;;;;;;71.82;33.97;;;;;;;11.34;100.00;95697.19;3164084;23;20037;-92
2023/10/20 06:07:07;;;;;;;70.18;33.70;;;;;;;11.34;100.00;95694.56;3164318;23;20784;-92
2023/10/20 06:08:22;;;;;;;68.72;33.28;;;;;;;11.34;100.00;95686.72;3163333;23;20057;-94
2023/10/20 06:09:39;;;;;;;66.18;32.65;;;;;;;11.04;100.00;95689.81;3147343;23;20049;-93
2023/10/20 06:11:02;;;;;;;71.90;34.10;;;;;;;11.21;100.00;95680.72;3153866;23;20021;-92
2023/10/20 06:12:18;;;;;;;67.72;32.50;;;;;;;11.24;100.00;95672.63;3146915;23;20101;-92
2023/10/20 06:13:35;;;;;;;66.90;34.10;;;;;;;11.24;100.00;95670.00;3155535;23;20030;-92
2023/10/20 06:14:50;;;;;;;67.65;34.72;;;;;;;11.23;100.00;95671.78;3163060;23;20026;-90
2023/10/20 06:16:08;;;;;;;74.28;34.10;;;;;;;11.29;100.00;95668.72;3163841;23;20026;-92